Time;durP1;ratioP1;P1;durP2;ratioP2;P2;SDS_P1;SDS_P2;PMS_P1;PMS_P2;Temp;Humidity;BMP_temperature;BMP_pressure;BME280_temperature;BME280_humidity;BME280_pressure;Samples;Min_cycle;Max_cycle;Signal;HPM_P1;HPM_P2
2022/03/13 00:00:10;;;;;;;12.9;10.7;;;;;;;11.6;100.0;101250;;;;
2022/03/13 00:01:03;;;;;;;12.9;10.7;;;;;;;11.6;100.0;101250;;;;
2022/03/13 00:02:00;;;;;;;12.9;10.7;;;;;;;11.6;100.0;101250;;;;
2022/03/13 00:03:02;;;;;;;12.9;10.7;;;;;;;11.5;100.0;101250;;;;
2022/03/13 00:04:01;;;;;;;12.9;10.7;;;;;;;11.5;100.0;101250;;;;
2022/03/13 00:05:00;;;;;;;12.9;10.7;;;;;;;11.6;100.0;101240;;;;
2022/03/13 00:06:00;;;;;;;12.9;10.7;;;;;;;11.6;100.0;101240;;;;
2022/03/13 00:07:00;;;;;;;12.9;10.7;;;;;;;11.5;100.0;101250;;;;
2022/03/13 00:08:01;;;;;;;12.9;10.7;;;;;;;11.5;100.0;101250;;;;
2022/03/13 00:09:00;;;;;;;12.9;10.7;;;;;;;11.5;100.0;101250;;;;
2022/03/13 00:10:00;;;;;;;12.9;10.7;;;;;;;11.5;100.0;101250;;;;
2022/03/13 00:11:03;;;;;;;12.9;10.7;;;;;;;11.5;100.0;101250;;;;
2022/03/13 00:12:03;;;;;;;12.9;10.7;;;;;;;11.5;100.0;101250;;;;
2022/03/13 00:13:03;;;;;;;12.9;10.7;;;;;;;11.4;100.0;101260;;;;
2022/03/13 00:14:01;;;;;;;12.9;10.7;;;;;;;11.4;100.0;101260;;;;
2022/03/13 00:15:05;;;;;;;11.0;9.4;;;;;;;11.4;100.0;101260;;;;
2022/03/13 00:16:03;;;;;;;11.0;9.4;;;;;;;11.4;100.0;101260;;;;
2022/03/13 00:17:00;;;;;;;11.0;9.4;;;;;;;11.6;100.0;101250;;;;
2022/03/13 00:18:01;;;;;;;11.0;9.4;;;;;;;11.6;100.0;101250;;;;
2022/03/13 00:19:00;;;;;;;11.0;9.4;;;;;;;11.5;100.0;101250;;;;
2022/03/13 00:20:02;;;;;;;11.0;9.4;;;;;;;11.5;100.0;101250;;;;
2022/03/13 00:21:03;;;;;;;11.0;9.4;;;;;;;11.5;100.0;101250;;;;
2022/03/13 00:22:00;;;;;;;11.0;9.4;;;;;;;11.5;100.0;101250;;;;
2022/03/13 00:23:00;;;;;;;11.0;9.4;;;;;;;11.4;100.0;101250;;;;
2022/03/13 00:24:00;;;;;;;11.0;9.4;;;;;;;11.4;100.0;101250;;;;
2022/03/13 00:25:01;;;;;;;11.0;9.4;;;;;;;11.4;100.0;101250;;;;
2022/03/13 00:26:02;;;;;;;11.0;9.4;;;;;;;11.4;100.0;101250;;;;
2022/03/13 00:27:01;;;;;;;11.0;9.4;;;;;;;11.4;100.0;101250;;;;
2022/03/13 00:28:00;;;;;;;11.0;9.4;;;;;;;11.4;100.0;101250;;;;
2022/03/13 00:29:00;;;;;;;11.0;9.4;;;;;;;11.5;100.0;101250;;;;
2022/03/13 00:30:01;;;;;;;11.0;9.4;;;;;;;11.5;100.0;101250;;;;
2022/03/13 00:31:00;;;;;;;11.0;9.4;;;;;;;11.5;100.0;101250;;;;
2022/03/13 00:32:00;;;;;;;11.0;9.4;;;;;;;11.5;100.0;101250;;;;
2022/03/13 00:33:00;;;;;;;11.0;9.4;;;;;;;11.5;100.0;101240;;;;
2022/03/13 00:34:00;;;;;;;11.0;9.4;;;;;;;11.5;100.0;101240;;;;
2022/03/13 00:35:00;;;;;;;11.3;10.2;;;;;;;11.6;100.0;101240;;;;
2022/03/13 00:36:00;;;;;;;11.3;10.2;;;;;;;11.6;100.0;101240;;;;
2022/03/13 00:37:00;;;;;;;11.3;10.2;;;;;;;11.6;100.0;101240;;;;
2022/03/13 00:38:00;;;;;;;11.3;10.2;;;;;;;11.6;100.0;101240;;;;
2022/03/13 00:39:00;;;;;;;11.3;10.2;;;;;;;11.4;100.0;101240;;;;
2022/03/13 00:40:01;;;;;;;11.3;10.2;;;;;;;11.4;100.0;101240;;;;
2022/03/13 00:41:00;;;;;;;11.3;10.2;;;;;;;11.5;100.0;101240;;;;
2022/03/13 00:42:00;;;;;;;11.3;10.2;;;;;;;11.5;100.0;101240;;;;
2022/03/13 00:43:00;;;;;;;11.3;10.2;;;;;;;11.5;100.0;101240;;;;
2022/03/13 00:44:00;;;;;;;11.3;10.2;;;;;;;11.5;100.0;101240;;;;
2022/03/13 00:45:00;;;;;;;11.3;10.2;;;;;;;11.4;100.0;101240;;;;
2022/03/13 00:46:00;;;;;;;11.3;10.2;;;;;;;11.4;100.0;101240;;;;
2022/03/13 00:47:00;;;;;;;11.3;10.2;;;;;;;11.5;100.0;101230;;;;
2022/03/13 00:48:00;;;;;;;11.3;10.2;;;;;;;11.5;100.0;101230;;;;
2022/03/13 00:49:00;;;;;;;11.3;10.2;;;;;;;11.4;100.0;101230;;;;
2022/03/13 00:50:00;;;;;;;11.3;10.2;;;;;;;11.4;100.0;101230;;;;
2022/03/13 00:51:00;;;;;;;11.3;10.2;;;;;;;11.4;100.0;101220;;;;
2022/03/13 00:52:02;;;;;;;11.3;10.2;;;;;;;11.4;100.0;101220;;;;
2022/03/13 00:53:00;;;;;;;11.3;10.2;;;;;;;11.5;100.0;101220;;;;
2022/03/13 00:54:00;;;;;;;11.3;10.2;;;;;;;11.5;100.0;101220;;;;
2022/03/13 00:55:00;;;;;;;12.9;11.6;;;;;;;11.4;100.0;101210;;;;
2022/03/13 00:56:00;;;;;;;12.9;11.6;;;;;;;11.4;100.0;101210;;;;
2022/03/13 00:57:00;;;;;;;12.9;11.6;;;;;;;11.4;100.0;101210;;;;
2022/03/13 00:58:00;;;;;;;12.9;11.6;;;;;;;11.4;100.0;101210;;;;
2022/03/13 00:59:00;;;;;;;12.9;11.6;;;;;;;11.5;100.0;101200;;;;
2022/03/13 01:00:00;;;;;;;12.9;11.6;;;;;;;11.5;100.0;101200;;;;
2022/03/13 01:01:01;;;;;;;12.9;11.6;;;;;;;11.4;100.0;101200;;;;
2022/03/13 01:02:00;;;;;;;12.9;11.6;;;;;;;11.4;100.0;101200;;;;
2022/03/13 01:03:00;;;;;;;12.9;11.6;;;;;;;11.4;100.0;101200;;;;
2022/03/13 01:04:00;;;;;;;12.9;11.6;;;;;;;11.4;100.0;101200;;;;
2022/03/13 01:05:00;;;;;;;12.9;11.6;;;;;;;11.3;100.0;101210;;;;
2022/03/13 01:06:00;;;;;;;12.9;11.6;;;;;;;11.3;100.0;101210;;;;
2022/03/13 01:07:00;;;;;;;12.9;11.6;;;;;;;11.3;100.0;101200;;;;
2022/03/13 01:08:00;;;;;;;12.9;11.6;;;;;;;11.3;100.0;101200;;;;
2022/03/13 01:09:00;;;;;;;12.9;11.6;;;;;;;11.3;100.0;101210;;;;
2022/03/13 01:10:00;;;;;;;12.9;11.6;;;;;;;11.3;100.0;101210;;;;
2022/03/13 01:11:00;;;;;;;12.9;11.6;;;;;;;11.2;100.0;101200;;;;
2022/03/13 01:12:00;;;;;;;12.9;11.6;;;;;;;11.2;100.0;101200;;;;
2022/03/13 01:13:00;;;;;;;12.9;11.6;;;;;;;11.2;100.0;101200;;;;
2022/03/13 01:14:00;;;;;;;12.9;11.6;;;;;;;11.2;100.0;101200;;;;
2022/03/13 01:15:00;;;;;;;12.2;11.0;;;;;;;11.2;100.0;101200;;;;
2022/03/13 01:16:10;;;;;;;12.2;11.0;;;;;;;11.2;100.0;101200;;;;
2022/03/13 01:17:01;;;;;;;12.2;11.0;;;;;;;11.2;100.0;101200;;;;
2022/03/13 01:18:00;;;;;;;12.2;11.0;;;;;;;11.2;100.0;101200;;;;
2022/03/13 01:19:00;;;;;;;12.2;11.0;;;;;;;11.2;100.0;101210;;;;
2022/03/13 01:20:01;;;;;;;12.2;11.0;;;;;;;11.2;100.0;101210;;;;
2022/03/13 01:21:00;;;;;;;12.2;11.0;;;;;;;11.1;100.0;101200;;;;
2022/03/13 01:22:00;;;;;;;12.2;11.0;;;;;;;11.1;100.0;101200;;;;
2022/03/13 01:23:00;;;;;;;12.2;11.0;;;;;;;11.2;100.0;101200;;;;
2022/03/13 01:24:00;;;;;;;12.2;11.0;;;;;;;11.2;100.0;101200;;;;
2022/03/13 01:25:00;;;;;;;12.2;11.0;;;;;;;11.0;100.0;101200;;;;
2022/03/13 01:26:10;;;;;;;12.2;11.0;;;;;;;11.0;100.0;101200;;;;
2022/03/13 01:27:01;;;;;;;12.2;11.0;;;;;;;11.1;100.0;101190;;;;
2022/03/13 01:28:00;;;;;;;12.2;11.0;;;;;;;11.1;100.0;101190;;;;
2022/03/13 01:29:01;;;;;;;12.2;11.0;;;;;;;11.1;100.0;101190;;;;
2022/03/13 01:30:00;;;;;;;12.2;11.0;;;;;;;11.1;100.0;101190;;;;
2022/03/13 01:31:00;;;;;;;12.2;11.0;;;;;;;11.1;100.0;101190;;;;
2022/03/13 01:32:00;;;;;;;12.2;11.0;;;;;;;11.1;100.0;101190;;;;
2022/03/13 01:33:00;;;;;;;12.2;11.0;;;;;;;11.1;100.0;101180;;;;
2022/03/13 01:34:00;;;;;;;12.2;11.0;;;;;;;11.1;100.0;101180;;;;
2022/03/13 01:35:00;;;;;;;12.0;10.8;;;;;;;11.1;100.0;101180;;;;
2022/03/13 01:36:00;;;;;;;12.0;10.8;;;;;;;11.1;100.0;101180;;;;
2022/03/13 01:37:00;;;;;;;12.0;10.8;;;;;;;11.0;100.0;101180;;;;
2022/03/13 01:38:02;;;;;;;12.0;10.8;;;;;;;11.0;100.0;101180;;;;
2022/03/13 01:39:01;;;;;;;12.0;10.8;;;;;;;11.1;100.0;101170;;;;
2022/03/13 01:40:03;;;;;;;12.0;10.8;;;;;;;11.1;100.0;101170;;;;
2022/03/13 01:41:00;;;;;;;12.0;10.8;;;;;;;11.0;100.0;101170;;;;
2022/03/13 01:42:00;;;;;;;12.0;10.8;;;;;;;11.0;100.0;101170;;;;
2022/03/13 01:43:00;;;;;;;12.0;10.8;;;;;;;11.0;100.0;101170;;;;
2022/03/13 01:44:00;;;;;;;12.0;10.8;;;;;;;11.0;100.0;101170;;;;
2022/03/13 01:45:00;;;;;;;12.0;10.8;;;;;;;11.0;100.0;101170;;;;
2022/03/13 01:46:01;;;;;;;12.0;10.8;;;;;;;11.0;100.0;101170;;;;
2022/03/13 01:47:01;;;;;;;12.0;10.8;;;;;;;11.0;100.0;101160;;;;
2022/03/13 01:48:00;;;;;;;12.0;10.8;;;;;;;11.0;100.0;101160;;;;
2022/03/13 01:49:02;;;;;;;12.0;10.8;;;;;;;10.9;100.0;101160;;;;
2022/03/13 01:50:00;;;;;;;12.0;10.8;;;;;;;10.9;100.0;101160;;;;
2022/03/13 01:51:00;;;;;;;12.0;10.8;;;;;;;11.0;100.0;101160;;;;
2022/03/13 01:52:01;;;;;;;12.0;10.8;;;;;;;11.0;100.0;101160;;;;
2022/03/13 01:53:00;;;;;;;12.0;10.8;;;;;;;11.0;100.0;101160;;;;
2022/03/13 01:54:02;;;;;;;12.0;10.8;;;;;;;11.0;100.0;101160;;;;
2022/03/13 01:55:00;;;;;;;11.5;10.5;;;;;;;10.9;100.0;101160;;;;
2022/03/13 01:56:00;;;;;;;11.5;10.5;;;;;;;10.9;100.0;101160;;;;
2022/03/13 01:57:01;;;;;;;11.5;10.5;;;;;;;11.0;100.0;101150;;;;
2022/03/13 01:58:00;;;;;;;11.5;10.5;;;;;;;11.0;100.0;101150;;;;
2022/03/13 01:59:00;;;;;;;11.5;10.5;;;;;;;10.9;100.0;101150;;;;
2022/03/13 02:00:00;;;;;;;11.5;10.5;;;;;;;10.9;100.0;101150;;;;
2022/03/13 02:01:01;;;;;;;11.5;10.5;;;;;;;10.9;100.0;101150;;;;
2022/03/13 02:02:00;;;;;;;11.5;10.5;;;;;;;10.9;100.0;101150;;;;
2022/03/13 02:03:00;;;;;;;11.5;10.5;;;;;;;10.8;100.0;101150;;;;
2022/03/13 02:04:00;;;;;;;11.5;10.5;;;;;;;10.8;100.0;101150;;;;
2022/03/13 02:05:00;;;;;;;11.5;10.5;;;;;;;10.8;100.0;101150;;;;
2022/03/13 02:06:00;;;;;;;11.5;10.5;;;;;;;10.8;100.0;101150;;;;
2022/03/13 02:07:00;;;;;;;11.5;10.5;;;;;;;10.8;100.0;101140;;;;
2022/03/13 02:08:04;;;;;;;11.5;10.5;;;;;;;10.8;100.0;101140;;;;
2022/03/13 02:09:00;;;;;;;11.5;10.5;;;;;;;10.9;100.0;101150;;;;
2022/03/13 02:10:00;;;;;;;11.5;10.5;;;;;;;10.9;100.0;101150;;;;
2022/03/13 02:11:00;;;;;;;11.5;10.5;;;;;;;10.9;100.0;101150;;;;
2022/03/13 02:12:01;;;;;;;11.5;10.5;;;;;;;10.9;100.0;101150;;;;
2022/03/13 02:13:00;;;;;;;11.5;10.5;;;;;;;10.8;100.0;101140;;;;
2022/03/13 02:14:00;;;;;;;11.5;10.5;;;;;;;10.8;100.0;101140;;;;
2022/03/13 02:15:00;;;;;;;11.4;10.3;;;;;;;10.8;100.0;101140;;;;
2022/03/13 02:16:00;;;;;;;11.4;10.3;;;;;;;10.8;100.0;101140;;;;
2022/03/13 02:17:00;;;;;;;11.4;10.3;;;;;;;10.7;100.0;101150;;;;
2022/03/13 02:18:01;;;;;;;11.4;10.3;;;;;;;10.7;100.0;101150;;;;
2022/03/13 02:19:00;;;;;;;11.4;10.3;;;;;;;10.7;100.0;101140;;;;
2022/03/13 02:20:00;;;;;;;11.4;10.3;;;;;;;10.7;100.0;101140;;;;
2022/03/13 02:21:00;;;;;;;11.4;10.3;;;;;;;10.6;100.0;101140;;;;
2022/03/13 02:22:00;;;;;;;11.4;10.3;;;;;;;10.6;100.0;101140;;;;
2022/03/13 02:23:01;;;;;;;11.4;10.3;;;;;;;10.7;100.0;101140;;;;
2022/03/13 02:24:01;;;;;;;11.4;10.3;;;;;;;10.7;100.0;101140;;;;
2022/03/13 02:25:00;;;;;;;11.4;10.3;;;;;;;10.8;100.0;101140;;;;
2022/03/13 02:26:01;;;;;;;11.4;10.3;;;;;;;10.8;100.0;101140;;;;
2022/03/13 02:27:02;;;;;;;11.4;10.3;;;;;;;10.7;100.0;101140;;;;
2022/03/13 02:28:00;;;;;;;11.4;10.3;;;;;;;10.7;100.0;101140;;;;
2022/03/13 02:29:01;;;;;;;11.4;10.3;;;;;;;10.8;100.0;101140;;;;
2022/03/13 02:30:00;;;;;;;11.4;10.3;;;;;;;10.8;100.0;101140;;;;
2022/03/13 02:31:02;;;;;;;11.4;10.3;;;;;;;10.8;100.0;101130;;;;
2022/03/13 02:32:00;;;;;;;11.4;10.3;;;;;;;10.8;100.0;101130;;;;
2022/03/13 02:33:00;;;;;;;11.4;10.3;;;;;;;10.7;100.0;101140;;;;
2022/03/13 02:34:00;;;;;;;11.4;10.3;;;;;;;10.7;100.0;101140;;;;
2022/03/13 02:35:00;;;;;;;11.2;10.0;;;;;;;10.7;100.0;101130;;;;
2022/03/13 02:36:02;;;;;;;11.2;10.0;;;;;;;10.7;100.0;101130;;;;
2022/03/13 02:37:02;;;;;;;11.2;10.0;;;;;;;10.7;100.0;101130;;;;
2022/03/13 02:38:00;;;;;;;11.2;10.0;;;;;;;10.7;100.0;101130;;;;
2022/03/13 02:39:00;;;;;;;11.2;10.0;;;;;;;10.7;100.0;101130;;;;
2022/03/13 02:40:00;;;;;;;11.2;10.0;;;;;;;10.7;100.0;101130;;;;
2022/03/13 02:41:00;;;;;;;11.2;10.0;;;;;;;10.6;100.0;101130;;;;
2022/03/13 02:42:00;;;;;;;11.2;10.0;;;;;;;10.6;100.0;101130;;;;
2022/03/13 02:43:00;;;;;;;11.2;10.0;;;;;;;10.6;100.0;101130;;;;
2022/03/13 02:44:00;;;;;;;11.2;10.0;;;;;;;10.6;100.0;101130;;;;
2022/03/13 02:45:00;;;;;;;11.2;10.0;;;;;;;10.6;100.0;101130;;;;
2022/03/13 02:46:00;;;;;;;11.2;10.0;;;;;;;10.6;100.0;101130;;;;
2022/03/13 02:47:01;;;;;;;11.2;10.0;;;;;;;10.6;100.0;101130;;;;
2022/03/13 02:48:00;;;;;;;11.2;10.0;;;;;;;10.6;100.0;101130;;;;
2022/03/13 02:49:00;;;;;;;11.2;10.0;;;;;;;10.7;100.0;101130;;;;
2022/03/13 02:50:00;;;;;;;11.2;10.0;;;;;;;10.7;100.0;101130;;;;
2022/03/13 02:51:00;;;;;;;11.2;10.0;;;;;;;10.7;100.0;101130;;;;
2022/03/13 02:52:01;;;;;;;11.2;10.0;;;;;;;10.7;100.0;101130;;;;
2022/03/13 02:53:00;;;;;;;11.2;10.0;;;;;;;10.7;100.0;101120;;;;
2022/03/13 02:54:00;;;;;;;11.2;10.0;;;;;;;10.7;100.0;101120;;;;
2022/03/13 02:55:00;;;;;;;12.9;11.5;;;;;;;10.5;100.0;101120;;;;
2022/03/13 02:56:00;;;;;;;12.9;11.5;;;;;;;10.5;100.0;101120;;;;
2022/03/13 02:57:00;;;;;;;12.9;11.5;;;;;;;10.5;100.0;101120;;;;
2022/03/13 02:58:00;;;;;;;12.9;11.5;;;;;;;10.5;100.0;101120;;;;
2022/03/13 02:59:00;;;;;;;12.9;11.5;;;;;;;10.6;100.0;101120;;;;
2022/03/13 03:00:00;;;;;;;12.9;11.5;;;;;;;10.6;100.0;101120;;;;
2022/03/13 03:01:00;;;;;;;12.9;11.5;;;;;;;10.5;100.0;101120;;;;
2022/03/13 03:02:02;;;;;;;12.9;11.5;;;;;;;10.5;100.0;101120;;;;
2022/03/13 03:03:00;;;;;;;12.9;11.5;;;;;;;10.5;100.0;101120;;;;
2022/03/13 03:04:01;;;;;;;12.9;11.5;;;;;;;10.5;100.0;101120;;;;
2022/03/13 03:05:03;;;;;;;12.9;11.5;;;;;;;10.4;100.0;101120;;;;
2022/03/13 03:06:00;;;;;;;12.9;11.5;;;;;;;10.4;100.0;101120;;;;
2022/03/13 03:07:01;;;;;;;12.9;11.5;;;;;;;10.5;100.0;101120;;;;
2022/03/13 03:08:00;;;;;;;12.9;11.5;;;;;;;10.5;100.0;101120;;;;
2022/03/13 03:09:02;;;;;;;12.9;11.5;;;;;;;10.4;100.0;101120;;;;
2022/03/13 03:10:00;;;;;;;12.9;11.5;;;;;;;10.4;100.0;101120;;;;
2022/03/13 03:11:00;;;;;;;12.9;11.5;;;;;;;10.5;100.0;101120;;;;
2022/03/13 03:12:01;;;;;;;12.9;11.5;;;;;;;10.5;100.0;101120;;;;
2022/03/13 03:13:00;;;;;;;12.9;11.5;;;;;;;10.4;100.0;101120;;;;
2022/03/13 03:14:02;;;;;;;12.9;11.5;;;;;;;10.4;100.0;101120;;;;
2022/03/13 03:15:00;;;;;;;13.9;12.5;;;;;;;10.3;100.0;101120;;;;
2022/03/13 03:16:00;;;;;;;13.9;12.5;;;;;;;10.3;100.0;101120;;;;
2022/03/13 03:17:00;;;;;;;13.9;12.5;;;;;;;10.3;100.0;101120;;;;
2022/03/13 03:18:02;;;;;;;13.9;12.5;;;;;;;10.3;100.0;101120;;;;
2022/03/13 03:19:00;;;;;;;13.9;12.5;;;;;;;10.3;100.0;101120;;;;
2022/03/13 03:20:00;;;;;;;13.9;12.5;;;;;;;10.3;100.0;101120;;;;
2022/03/13 03:21:00;;;;;;;13.9;12.5;;;;;;;10.4;100.0;101120;;;;
2022/03/13 03:22:00;;;;;;;13.9;12.5;;;;;;;10.4;100.0;101120;;;;
2022/03/13 03:23:00;;;;;;;13.9;12.5;;;;;;;10.3;100.0;101120;;;;
2022/03/13 03:24:00;;;;;;;13.9;12.5;;;;;;;10.3;100.0;101120;;;;
2022/03/13 03:25:00;;;;;;;13.9;12.5;;;;;;;10.1;100.0;101120;;;;
2022/03/13 03:26:00;;;;;;;13.9;12.5;;;;;;;10.1;100.0;101120;;;;
2022/03/13 03:27:00;;;;;;;13.9;12.5;;;;;;;10.1;100.0;101120;;;;
2022/03/13 03:28:00;;;;;;;13.9;12.5;;;;;;;10.1;100.0;101120;;;;
2022/03/13 03:29:00;;;;;;;13.9;12.5;;;;;;;10.2;100.0;101120;;;;
2022/03/13 03:30:00;;;;;;;13.9;12.5;;;;;;;10.2;100.0;101120;;;;
2022/03/13 03:31:00;;;;;;;13.9;12.5;;;;;;;10.2;100.0;101120;;;;
2022/03/13 03:32:02;;;;;;;13.9;12.5;;;;;;;10.2;100.0;101120;;;;
2022/03/13 03:33:01;;;;;;;13.9;12.5;;;;;;;10.2;100.0;101120;;;;
2022/03/13 03:34:00;;;;;;;13.9;12.5;;;;;;;10.2;100.0;101120;;;;
2022/03/13 03:35:00;;;;;;;16.2;14.6;;;;;;;10.2;100.0;101120;;;;
2022/03/13 03:36:00;;;;;;;16.2;14.6;;;;;;;10.2;100.0;101120;;;;
2022/03/13 03:37:01;;;;;;;16.2;14.6;;;;;;;10.0;100.0;101110;;;;
2022/03/13 03:38:00;;;;;;;16.2;14.6;;;;;;;10.0;100.0;101110;;;;
2022/03/13 03:39:00;;;;;;;16.2;14.6;;;;;;;10.0;100.0;101110;;;;
2022/03/13 03:40:00;;;;;;;16.2;14.6;;;;;;;10.0;100.0;101110;;;;
2022/03/13 03:41:00;;;;;;;16.2;14.6;;;;;;;10.0;100.0;101110;;;;
2022/03/13 03:42:02;;;;;;;16.2;14.6;;;;;;;10.0;100.0;101110;;;;
2022/03/13 03:43:02;;;;;;;16.2;14.6;;;;;;;9.9;100.0;101110;;;;
2022/03/13 03:44:00;;;;;;;16.2;14.6;;;;;;;9.9;100.0;101110;;;;
2022/03/13 03:45:00;;;;;;;16.2;14.6;;;;;;;9.9;100.0;101110;;;;
2022/03/13 03:46:00;;;;;;;16.2;14.6;;;;;;;9.9;100.0;101110;;;;
2022/03/13 03:47:00;;;;;;;16.2;14.6;;;;;;;9.9;100.0;101110;;;;
2022/03/13 03:48:00;;;;;;;16.2;14.6;;;;;;;9.9;100.0;101110;;;;
2022/03/13 03:49:00;;;;;;;16.2;14.6;;;;;;;10.0;100.0;101120;;;;
2022/03/13 03:50:00;;;;;;;16.2;14.6;;;;;;;10.0;100.0;101120;;;;
2022/03/13 03:51:00;;;;;;;16.2;14.6;;;;;;;10.0;100.0;101110;;;;
2022/03/13 03:52:00;;;;;;;16.2;14.6;;;;;;;10.0;100.0;101110;;;;
2022/03/13 03:53:00;;;;;;;16.2;14.6;;;;;;;10.0;100.0;101110;;;;
2022/03/13 03:54:00;;;;;;;16.2;14.6;;;;;;;10.0;100.0;101110;;;;
2022/03/13 03:55:00;;;;;;;16.7;15.0;;;;;;;10.0;100.0;101110;;;;
2022/03/13 03:56:02;;;;;;;16.7;15.0;;;;;;;10.0;100.0;101110;;;;
2022/03/13 03:57:00;;;;;;;16.7;15.0;;;;;;;10.0;100.0;101100;;;;
2022/03/13 03:58:00;;;;;;;16.7;15.0;;;;;;;10.0;100.0;101100;;;;
2022/03/13 03:59:00;;;;;;;16.7;15.0;;;;;;;9.7;100.0;101110;;;;
2022/03/13 04:00:00;;;;;;;16.7;15.0;;;;;;;9.7;100.0;101110;;;;
2022/03/13 04:01:00;;;;;;;16.7;15.0;;;;;;;9.8;100.0;101110;;;;
2022/03/13 04:02:00;;;;;;;16.7;15.0;;;;;;;9.8;100.0;101110;;;;
2022/03/13 04:03:00;;;;;;;16.7;15.0;;;;;;;9.9;100.0;101110;;;;
2022/03/13 04:04:00;;;;;;;16.7;15.0;;;;;;;9.9;100.0;101110;;;;
2022/03/13 04:05:02;;;;;;;16.7;15.0;;;;;;;10.0;100.0;101110;;;;
2022/03/13 04:06:00;;;;;;;16.7;15.0;;;;;;;10.0;100.0;101110;;;;
2022/03/13 04:07:00;;;;;;;16.7;15.0;;;;;;;9.9;100.0;101110;;;;
2022/03/13 04:08:00;;;;;;;16.7;15.0;;;;;;;9.9;100.0;101110;;;;
2022/03/13 04:09:00;;;;;;;16.7;15.0;;;;;;;9.9;100.0;101100;;;;
2022/03/13 04:10:00;;;;;;;16.7;15.0;;;;;;;9.9;100.0;101100;;;;
2022/03/13 04:11:00;;;;;;;16.7;15.0;;;;;;;9.9;100.0;101110;;;;
2022/03/13 04:12:00;;;;;;;16.7;15.0;;;;;;;9.9;100.0;101110;;;;
2022/03/13 04:13:01;;;;;;;16.7;15.0;;;;;;;9.9;100.0;101110;;;;
2022/03/13 04:14:00;;;;;;;16.7;15.0;;;;;;;9.9;100.0;101110;;;;
2022/03/13 04:15:02;;;;;;;17.7;15.9;;;;;;;9.9;100.0;101110;;;;
2022/03/13 04:16:00;;;;;;;17.7;15.9;;;;;;;9.9;100.0;101110;;;;
2022/03/13 04:17:00;;;;;;;17.7;15.9;;;;;;;9.9;100.0;101100;;;;
2022/03/13 04:18:00;;;;;;;17.7;15.9;;;;;;;9.9;100.0;101100;;;;
2022/03/13 04:19:00;;;;;;;17.7;15.9;;;;;;;9.9;100.0;101100;;;;
2022/03/13 04:20:00;;;;;;;17.7;15.9;;;;;;;9.9;100.0;101100;;;;
2022/03/13 04:21:00;;;;;;;17.7;15.9;;;;;;;9.9;100.0;101110;;;;
2022/03/13 04:22:00;;;;;;;17.7;15.9;;;;;;;9.9;100.0;101110;;;;
2022/03/13 04:23:00;;;;;;;17.7;15.9;;;;;;;9.8;100.0;101110;;;;
2022/03/13 04:24:00;;;;;;;17.7;15.9;;;;;;;9.8;100.0;101110;;;;
2022/03/13 04:25:00;;;;;;;17.7;15.9;;;;;;;9.8;100.0;101110;;;;
2022/03/13 04:26:00;;;;;;;17.7;15.9;;;;;;;9.8;100.0;101110;;;;
2022/03/13 04:27:00;;;;;;;17.7;15.9;;;;;;;9.7;100.0;101100;;;;
2022/03/13 04:28:00;;;;;;;17.7;15.9;;;;;;;9.7;100.0;101100;;;;
2022/03/13 04:29:00;;;;;;;17.7;15.9;;;;;;;9.5;100.0;101100;;;;
2022/03/13 04:30:00;;;;;;;17.7;15.9;;;;;;;9.5;100.0;101100;;;;
2022/03/13 04:31:00;;;;;;;17.7;15.9;;;;;;;9.5;100.0;101100;;;;
2022/03/13 04:32:03;;;;;;;17.7;15.9;;;;;;;9.5;100.0;101100;;;;
2022/03/13 04:33:01;;;;;;;17.7;15.9;;;;;;;9.6;100.0;101100;;;;
2022/03/13 04:34:00;;;;;;;17.7;15.9;;;;;;;9.6;100.0;101100;;;;
2022/03/13 04:35:00;;;;;;;18.1;16.3;;;;;;;9.4;100.0;101100;;;;
2022/03/13 04:36:03;;;;;;;18.1;16.3;;;;;;;9.4;100.0;101100;;;;
2022/03/13 04:37:00;;;;;;;18.1;16.3;;;;;;;9.4;100.0;101100;;;;
2022/03/13 04:38:00;;;;;;;18.1;16.3;;;;;;;9.4;100.0;101100;;;;
2022/03/13 04:39:01;;;;;;;18.1;16.3;;;;;;;9.3;100.0;101100;;;;
2022/03/13 04:40:00;;;;;;;18.1;16.3;;;;;;;9.3;100.0;101100;;;;
2022/03/13 04:41:00;;;;;;;18.1;16.3;;;;;;;9.1;100.0;101110;;;;
2022/03/13 04:42:00;;;;;;;18.1;16.3;;;;;;;9.1;100.0;101110;;;;
2022/03/13 04:43:01;;;;;;;18.1;16.3;;;;;;;9.3;100.0;101100;;;;
2022/03/13 04:44:00;;;;;;;18.1;16.3;;;;;;;9.3;100.0;101100;;;;
2022/03/13 04:45:01;;;;;;;18.1;16.3;;;;;;;9.4;100.0;101110;;;;
2022/03/13 04:46:00;;;;;;;18.1;16.3;;;;;;;9.4;100.0;101110;;;;
2022/03/13 04:47:01;;;;;;;18.1;16.3;;;;;;;9.4;100.0;101110;;;;
2022/03/13 04:48:00;;;;;;;18.1;16.3;;;;;;;9.4;100.0;101110;;;;
2022/03/13 04:49:00;;;;;;;18.1;16.3;;;;;;;9.4;100.0;101100;;;;
2022/03/13 04:50:00;;;;;;;18.1;16.3;;;;;;;9.4;100.0;101100;;;;
2022/03/13 04:51:00;;;;;;;18.1;16.3;;;;;;;9.4;100.0;101090;;;;
2022/03/13 04:52:00;;;;;;;18.1;16.3;;;;;;;9.4;100.0;101090;;;;
2022/03/13 04:53:00;;;;;;;18.1;16.3;;;;;;;9.4;100.0;101100;;;;
2022/03/13 04:54:00;;;;;;;18.8;17.0;;;;;;;9.4;100.0;101100;;;;
2022/03/13 04:55:00;;;;;;;18.8;17.0;;;;;;;9.5;100.0;101100;;;;
2022/03/13 04:56:00;;;;;;;18.8;17.0;;;;;;;9.5;100.0;101100;;;;
2022/03/13 04:57:00;;;;;;;18.8;17.0;;;;;;;9.3;100.0;101110;;;;
2022/03/13 04:58:00;;;;;;;18.8;17.0;;;;;;;9.3;100.0;101110;;;;
2022/03/13 04:59:00;;;;;;;18.8;17.0;;;;;;;9.2;100.0;101110;;;;
2022/03/13 05:00:00;;;;;;;18.8;17.0;;;;;;;9.2;100.0;101110;;;;
2022/03/13 05:01:00;;;;;;;18.8;17.0;;;;;;;9.2;100.0;101100;;;;
2022/03/13 05:02:00;;;;;;;18.8;17.0;;;;;;;9.2;100.0;101100;;;;
2022/03/13 05:03:00;;;;;;;18.8;17.0;;;;;;;9.2;100.0;101100;;;;
2022/03/13 05:04:00;;;;;;;18.8;17.0;;;;;;;9.2;100.0;101100;;;;
2022/03/13 05:05:00;;;;;;;18.8;17.0;;;;;;;9.2;100.0;101100;;;;
2022/03/13 05:06:03;;;;;;;18.8;17.0;;;;;;;9.2;100.0;101100;;;;
2022/03/13 05:07:00;;;;;;;18.8;17.0;;;;;;;9.3;100.0;101100;;;;
2022/03/13 05:08:01;;;;;;;18.8;17.0;;;;;;;9.3;100.0;101100;;;;
2022/03/13 05:09:00;;;;;;;18.8;17.0;;;;;;;9.4;100.0;101110;;;;
2022/03/13 05:10:00;;;;;;;18.8;17.0;;;;;;;9.4;100.0;101110;;;;
2022/03/13 05:11:00;;;;;;;18.8;17.0;;;;;;;9.3;100.0;101110;;;;
2022/03/13 05:12:10;;;;;;;18.8;17.0;;;;;;;9.3;100.0;101110;;;;
2022/03/13 05:13:00;;;;;;;18.8;17.0;;;;;;;9.5;100.0;101110;;;;
2022/03/13 05:14:00;;;;;;;17.9;15.7;;;;;;;9.5;100.0;101110;;;;
2022/03/13 05:15:00;;;;;;;17.9;15.7;;;;;;;9.5;100.0;101110;;;;
2022/03/13 05:16:00;;;;;;;17.9;15.7;;;;;;;9.5;100.0;101110;;;;
2022/03/13 05:17:00;;;;;;;17.9;15.7;;;;;;;9.5;100.0;101110;;;;
2022/03/13 05:18:01;;;;;;;17.9;15.7;;;;;;;9.5;100.0;101110;;;;
2022/03/13 05:19:00;;;;;;;17.9;15.7;;;;;;;9.6;100.0;101110;;;;
2022/03/13 05:20:00;;;;;;;17.9;15.7;;;;;;;9.6;100.0;101110;;;;
2022/03/13 05:21:00;;;;;;;17.9;15.7;;;;;;;9.6;100.0;101110;;;;
2022/03/13 05:22:00;;;;;;;17.9;15.7;;;;;;;9.6;100.0;101110;;;;
2022/03/13 05:23:00;;;;;;;17.9;15.7;;;;;;;9.4;100.0;101110;;;;
2022/03/13 05:24:00;;;;;;;17.9;15.7;;;;;;;9.4;100.0;101110;;;;
2022/03/13 05:25:00;;;;;;;17.9;15.7;;;;;;;9.4;100.0;101110;;;;
2022/03/13 05:26:00;;;;;;;17.9;15.7;;;;;;;9.4;100.0;101110;;;;
2022/03/13 05:27:00;;;;;;;17.9;15.7;;;;;;;9.4;100.0;101110;;;;
2022/03/13 05:28:00;;;;;;;17.9;15.7;;;;;;;9.4;100.0;101110;;;;
2022/03/13 05:29:00;;;;;;;17.9;15.7;;;;;;;9.4;100.0;101110;;;;
2022/03/13 05:30:00;;;;;;;17.9;15.7;;;;;;;9.4;100.0;101110;;;;
2022/03/13 05:31:00;;;;;;;17.9;15.7;;;;;;;9.4;100.0;101110;;;;
2022/03/13 05:32:00;;;;;;;17.9;15.7;;;;;;;9.4;100.0;101110;;;;
2022/03/13 05:33:00;;;;;;;17.9;15.7;;;;;;;9.3;100.0;101110;;;;
2022/03/13 05:34:00;;;;;;;18.0;16.1;;;;;;;9.3;100.0;101110;;;;
2022/03/13 05:35:00;;;;;;;18.0;16.1;;;;;;;9.1;100.0;101100;;;;
2022/03/13 05:36:00;;;;;;;18.0;16.1;;;;;;;9.1;100.0;101100;;;;
2022/03/13 05:37:00;;;;;;;18.0;16.1;;;;;;;9.3;100.0;101100;;;;
2022/03/13 05:38:00;;;;;;;18.0;16.1;;;;;;;9.3;100.0;101100;;;;
2022/03/13 05:39:00;;;;;;;18.0;16.1;;;;;;;9.3;100.0;101100;;;;
2022/03/13 05:40:00;;;;;;;18.0;16.1;;;;;;;9.3;100.0;101100;;;;
2022/03/13 05:41:02;;;;;;;18.0;16.1;;;;;;;9.1;100.0;101090;;;;
2022/03/13 05:42:00;;;;;;;18.0;16.1;;;;;;;9.1;100.0;101090;;;;
2022/03/13 05:43:00;;;;;;;18.0;16.1;;;;;;;9.2;100.0;101100;;;;
2022/03/13 05:44:00;;;;;;;18.0;16.1;;;;;;;9.2;100.0;101100;;;;
2022/03/13 05:45:00;;;;;;;18.0;16.1;;;;;;;9.1;100.0;101110;;;;
2022/03/13 05:46:00;;;;;;;18.0;16.1;;;;;;;9.1;100.0;101110;;;;
2022/03/13 05:47:00;;;;;;;18.0;16.1;;;;;;;9.1;100.0;101120;;;;
2022/03/13 05:48:06;;;;;;;18.0;16.1;;;;;;;9.1;100.0;101120;;;;
2022/03/13 05:49:00;;;;;;;18.0;16.1;;;;;;;9.2;100.0;101120;;;;
2022/03/13 05:50:00;;;;;;;18.0;16.1;;;;;;;9.2;100.0;101120;;;;
2022/03/13 05:51:00;;;;;;;18.0;16.1;;;;;;;9.1;100.0;101110;;;;
2022/03/13 05:52:00;;;;;;;18.0;16.1;;;;;;;9.1;100.0;101110;;;;
2022/03/13 05:53:00;;;;;;;18.0;16.1;;;;;;;9.0;100.0;101110;;;;
2022/03/13 05:54:00;;;;;;;16.8;15.1;;;;;;;9.0;100.0;101110;;;;
2022/03/13 05:55:01;;;;;;;16.8;15.1;;;;;;;8.9;100.0;101110;;;;
2022/03/13 05:56:00;;;;;;;16.8;15.1;;;;;;;8.9;100.0;101110;;;;
2022/03/13 05:57:03;;;;;;;16.8;15.1;;;;;;;8.9;100.0;101110;;;;
2022/03/13 05:58:00;;;;;;;16.8;15.1;;;;;;;8.9;100.0;101110;;;;
2022/03/13 05:59:00;;;;;;;16.8;15.1;;;;;;;8.9;100.0;101120;;;;
2022/03/13 06:00:00;;;;;;;16.8;15.1;;;;;;;8.9;100.0;101120;;;;
2022/03/13 06:01:04;;;;;;;16.8;15.1;;;;;;;9.0;100.0;101110;;;;
2022/03/13 06:02:04;;;;;;;16.8;15.1;;;;;;;9.0;100.0;101110;;;;
2022/03/13 06:03:00;;;;;;;16.8;15.1;;;;;;;9.1;100.0;101110;;;;
2022/03/13 06:04:00;;;;;;;16.8;15.1;;;;;;;9.1;100.0;101110;;;;
2022/03/13 06:05:00;;;;;;;16.8;15.1;;;;;;;8.9;100.0;101120;;;;
2022/03/13 06:06:01;;;;;;;16.8;15.1;;;;;;;8.9;100.0;101120;;;;
2022/03/13 06:07:00;;;;;;;16.8;15.1;;;;;;;8.8;100.0;101110;;;;
2022/03/13 06:08:00;;;;;;;16.8;15.1;;;;;;;8.8;100.0;101110;;;;
2022/03/13 06:09:00;;;;;;;16.8;15.1;;;;;;;8.8;100.0;101120;;;;
2022/03/13 06:10:03;;;;;;;16.8;15.1;;;;;;;8.8;100.0;101120;;;;
2022/03/13 06:11:00;;;;;;;16.8;15.1;;;;;;;8.9;100.0;101120;;;;
2022/03/13 06:12:00;;;;;;;16.8;15.1;;;;;;;8.9;100.0;101120;;;;
2022/03/13 06:13:00;;;;;;;16.8;15.1;;;;;;;8.7;100.0;101120;;;;